Time;durP1;ratioP1;P1;durP2;ratioP2;P2;SDS_P1;SDS_P2;PMS_P1;PMS_P2;Temp;Humidity;BMP_temperature;BMP_pressure;BME280_temperature;BME280_humidity;BME280_pressure;Samples;Min_cycle;Max_cycle;Signal;HPM_P1;HPM_P2
2022/06/06 00:01:20;;;;;;;12.25;10.52;;;12.60;99.90;;;;;;4965841;28;20058;-58
2022/06/06 00:03:47;;;;;;;13.25;9.55;;;12.60;99.90;;;;;;4958826;28;20046;-57
2022/06/06 00:06:17;;;;;;;10.65;8.48;;;12.60;99.90;;;;;;4966454;28;20074;-57
2022/06/06 00:08:44;;;;;;;15.75;9.10;;;12.60;99.90;;;;;;4966347;28;20066;-57
2022/06/06 00:11:11;;;;;;;10.95;8.73;;;12.60;99.90;;;;;;4967536;28;20049;-63
2022/06/06 00:13:40;;;;;;;15.95;9.68;;;12.60;99.90;;;;;;4967357;28;20137;-57
2022/06/06 00:16:08;;;;;;;12.90;9.45;;;12.60;99.90;;;;;;4967555;28;20117;-56
2022/06/06 00:18:35;;;;;;;13.90;10.27;;;12.60;99.90;;;;;;4966663;28;20043;-55
2022/06/06 00:21:03;;;;;;;12.70;8.57;;;12.60;99.90;;;;;;4966751;28;20097;-57
2022/06/06 00:23:29;;;;;;;14.70;9.88;;;12.60;99.90;;;;;;4962390;28;20126;-56
2022/06/06 00:25:57;;;;;;;12.45;9.35;;;12.60;99.90;;;;;;4957983;28;20141;-58
2022/06/06 00:28:24;;;;;;;11.77;8.98;;;12.50;99.90;;;;;;4967593;28;20109;-56
2022/06/06 00:30:56;;;;;;;10.00;7.90;;;12.50;99.90;;;;;;4967445;28;20070;-58
2022/06/06 00:36:09;;;;;;;11.98;9.02;;;12.50;99.90;;;;;;4967763;28;20058;-58
2022/06/06 00:38:36;;;;;;;20.52;10.10;;;12.50;99.90;;;;;;4966068;28;20086;-57
2022/06/06 00:41:03;;;;;;;13.15;8.13;;;12.50;99.90;;;;;;4982095;28;20079;-66
2022/06/06 00:43:30;;;;;;;12.65;8.02;;;12.50;99.90;;;;;;4966967;28;20133;-57
2022/06/06 00:45:56;;;;;;;10.60;7.97;;;12.50;99.90;;;;;;4967445;28;20053;-56
2022/06/06 00:48:25;;;;;;;16.45;9.65;;;12.40;99.90;;;;;;4965870;28;20098;-55
2022/06/06 00:50:54;;;;;;;13.40;8.20;;;12.40;99.90;;;;;;4965921;28;20149;-58
2022/06/06 00:53:27;;;;;;;11.15;7.43;;;12.40;99.90;;;;;;4966056;28;20129;-58
2022/06/06 00:55:59;;;;;;;11.23;7.25;;;12.40;99.90;;;;;;4965620;28;20134;-58
2022/06/06 00:58:26;;;;;;;13.10;8.05;;;12.40;99.90;;;;;;4967619;28;20125;-58
2022/06/06 01:00:52;;;;;;;12.40;7.32;;;12.40;99.90;;;;;;4969199;28;20078;-59
2022/06/06 01:03:23;;;;;;;11.68;8.07;;;12.40;99.90;;;;;;4970896;28;20074;-57
2022/06/06 01:05:50;;;;;;;12.10;8.07;;;12.40;99.90;;;;;;4970843;28;20047;-55
2022/06/06 01:08:18;;;;;;;9.55;7.28;;;12.30;99.90;;;;;;4969436;28;20178;-59
2022/06/06 01:10:44;;;;;;;11.63;7.63;;;12.30;99.90;;;;;;4970634;28;20117;-57
2022/06/06 01:13:11;;;;;;;12.77;8.38;;;12.40;99.90;;;;;;4970282;28;20165;-58
2022/06/06 01:16:03;;;;;;;11.77;8.57;;;12.30;99.90;;;;;;4984708;28;20147;-61
2022/06/06 01:18:30;;;;;;;13.38;7.10;;;12.30;99.90;;;;;;4972894;28;20054;-57
2022/06/06 01:21:21;;;;;;;8.68;6.70;;;12.30;99.90;;;;;;4971024;28;20129;-58
2022/06/06 01:24:15;;;;;;;10.63;7.10;;;12.30;99.90;;;;;;4969091;28;20051;-56
2022/06/06 01:26:46;;;;;;;12.38;7.40;;;12.30;99.90;;;;;;4997757;28;20138;-56
2022/06/06 01:29:20;;;;;;;17.20;9.00;;;12.30;99.90;;;;;;5000517;28;20146;-58
2022/06/06 01:31:51;;;;;;;12.63;7.55;;;12.40;99.90;;;;;;4969105;28;20085;-57
2022/06/06 01:34:24;;;;;;;14.50;7.65;;;12.40;99.90;;;;;;4969201;28;20078;-58
2022/06/06 01:36:52;;;;;;;10.77;7.95;;;12.40;99.90;;;;;;4970308;28;20085;-57
2022/06/06 01:39:19;;;;;;;16.13;7.45;;;12.50;99.90;;;;;;4969056;28;20130;-58
2022/06/06 01:41:56;;;;;;;12.45;7.18;;;12.50;99.90;;;;;;4968945;28;20093;-57
2022/06/06 01:44:45;;;;;;;12.93;6.57;;;12.50;99.90;;;;;;4622157;28;10000400;-59
2022/06/06 01:47:14;;;;;;;9.55;6.05;;;12.60;99.90;;;;;;4966317;28;20051;-57
2022/06/06 01:49:41;;;;;;;13.48;7.10;;;12.60;99.90;;;;;;4968888;28;20607;-57
2022/06/06 01:52:10;;;;;;;12.75;6.20;;;12.60;99.90;;;;;;4969029;28;20516;-58
2022/06/06 01:54:37;;;;;;;8.27;6.88;;;12.60;99.90;;;;;;4968910;28;20042;-61
2022/06/06 01:57:04;;;;;;;9.27;6.38;;;12.70;99.90;;;;;;4970058;28;20166;-56
2022/06/06 01:59:32;;;;;;;9.70;7.18;;;12.70;99.90;;;;;;4968510;28;20077;-58
2022/06/06 02:01:59;;;;;;;11.48;7.22;;;12.70;99.90;;;;;;4970093;28;20482;-58
2022/06/06 02:04:26;;;;;;;12.20;8.13;;;12.70;99.90;;;;;;4969984;28;20498;-56
2022/06/06 02:06:53;;;;;;;8.30;6.03;;;12.70;99.90;;;;;;4969258;28;20137;-56
2022/06/06 02:09:20;;;;;;;8.82;6.15;;;12.70;99.90;;;;;;4969751;28;20082;-59
2022/06/06 02:11:46;;;;;;;9.90;6.18;;;12.70;99.90;;;;;;4964963;28;20082;-57
2022/06/06 02:14:13;;;;;;;11.05;6.00;;;12.70;99.90;;;;;;4969460;28;20142;-59
2022/06/06 02:16:40;;;;;;;13.85;6.70;;;12.70;99.90;;;;;;4969654;28;20089;-57
2022/06/06 02:19:07;;;;;;;12.82;6.82;;;12.80;99.90;;;;;;4969012;28;20065;-58
2022/06/06 02:21:34;;;;;;;11.30;7.13;;;12.70;99.90;;;;;;4969189;28;20142;-59
2022/06/06 02:24:01;;;;;;;8.98;5.95;;;12.70;99.90;;;;;;4968931;28;20078;-58
2022/06/06 02:26:27;;;;;;;8.98;5.68;;;12.80;99.90;;;;;;4968951;28;20138;-57
2022/06/06 02:28:54;;;;;;;12.93;6.07;;;12.80;99.90;;;;;;4967822;28;20138;-57
2022/06/06 02:31:21;;;;;;;10.18;6.72;;;12.90;99.90;;;;;;4968804;28;20239;-57
2022/06/06 02:33:48;;;;;;;8.50;6.38;;;12.90;99.90;;;;;;4968884;28;20051;-58
2022/06/06 02:36:14;;;;;;;9.88;6.57;;;12.90;99.90;;;;;;4968933;28;20070;-56
2022/06/06 02:38:41;;;;;;;12.00;7.75;;;12.90;99.90;;;;;;4968822;28;20129;-57
2022/06/06 02:41:08;;;;;;;10.55;8.02;;;12.90;99.90;;;;;;4969076;28;20258;-57
2022/06/06 02:43:42;;;;;;;9.93;6.80;;;13.00;99.90;;;;;;4968815;28;20166;-58
2022/06/06 02:46:11;;;;;;;10.80;6.70;;;13.00;99.90;;;;;;4966490;28;20077;-57
2022/06/06 02:48:37;;;;;;;9.23;7.72;;;13.00;99.90;;;;;;4967475;28;20043;-56
2022/06/06 02:51:05;;;;;;;14.75;8.07;;;13.00;99.90;;;;;;4983857;28;20236;-58
2022/06/06 02:53:32;;;;;;;15.38;8.25;;;13.00;99.90;;;;;;4969119;28;20585;-57
2022/06/06 02:55:58;;;;;;;14.27;8.13;;;13.00;99.90;;;;;;4968483;28;20085;-57
2022/06/06 02:58:26;;;;;;;15.02;11.05;;;13.00;99.90;;;;;;4968799;28;20457;-58
2022/06/06 03:01:00;;;;;;;14.52;7.55;;;13.00;99.90;;;;;;4968801;28;20082;-58
2022/06/06 03:03:28;;;;;;;16.15;8.40;;;13.10;99.90;;;;;;4967066;28;20050;-59
2022/06/06 03:06:01;;;;;;;14.45;7.18;;;13.10;99.90;;;;;;4963527;28;20122;-57
2022/06/06 03:08:51;;;;;;;9.45;7.82;;;13.10;99.90;;;;;;4967172;28;20602;-58
2022/06/06 03:11:36;;;;;;;13.93;7.35;;;13.10;99.90;;;;;;4968282;28;20050;-58
2022/06/06 03:14:21;;;;;;;11.52;7.40;;;13.10;99.90;;;;;;4967515;28;20059;-58
2022/06/06 03:23:08;;;;;;;13.25;5.75;;;13.00;99.90;;;;;;4967624;28;20074;-56
2022/06/06 03:25:52;;;;;;;9.27;5.70;;;13.00;99.90;;;;;;4996331;28;20133;-58
2022/06/06 03:28:38;;;;;;;10.45;5.60;;;13.00;99.90;;;;;;4997320;28;20042;-58
2022/06/06 03:31:30;;;;;;;8.32;5.60;;;13.00;99.90;;;;;;4966940;28;20089;-58
2022/06/06 03:34:06;;;;;;;8.98;5.85;;;13.00;99.90;;;;;;4967493;28;20070;-56
2022/06/06 03:37:10;;;;;;;8.20;5.43;;;13.10;99.90;;;;;;4965101;28;20075;-57
2022/06/06 03:39:42;;;;;;;13.95;5.85;;;13.10;99.90;;;;;;4940499;29;20939;-56
2022/06/06 03:42:27;;;;;;;9.55;5.38;;;13.00;99.90;;;;;;4962535;28;20042;-60
2022/06/06 03:45:12;;;;;;;7.53;4.75;;;13.10;99.90;;;;;;4996146;28;20104;-53
2022/06/06 03:48:03;;;;;;;9.93;5.35;;;13.10;99.90;;;;;;4966185;28;20082;-56
2022/06/06 03:51:02;;;;;;;8.45;5.20;;;13.10;99.90;;;;;;4962812;28;20566;-59
2022/06/06 03:53:34;;;;;;;11.77;5.28;;;13.10;99.90;;;;;;4954363;28;20578;-56
2022/06/06 03:56:03;;;;;;;7.05;4.90;;;13.10;99.90;;;;;;4964413;28;20459;-56
2022/06/06 03:58:31;;;;;;;7.40;4.18;;;13.10;99.90;;;;;;4964970;28;20582;-56
2022/06/06 04:01:04;;;;;;;11.18;4.68;;;13.10;99.90;;;;;;4967333;28;20077;-57
2022/06/06 04:03:32;;;;;;;4.78;4.20;;;13.10;99.90;;;;;;4965569;28;20064;-58
2022/06/06 04:06:01;;;;;;;4.50;3.85;;;13.10;99.90;;;;;;4991032;28;20137;-54
2022/06/06 04:08:28;;;;;;;5.30;3.45;;;13.10;99.90;;;;;;4967465;28;20157;-57
2022/06/06 04:11:04;;;;;;;7.10;4.40;;;13.10;99.90;;;;;;4967301;28;20085;-55
2022/06/06 04:13:47;;;;;;;4.57;2.97;;;13.10;99.90;;;;;;4967711;28;20081;-57
2022/06/06 04:16:35;;;;;;;5.22;3.58;;;13.10;99.90;;;;;;4967277;28;20050;-56
2022/06/06 04:19:17;;;;;;;4.57;3.30;;;13.10;99.90;;;;;;4966963;28;20129;-57
2022/06/06 04:22:25;;;;;;;3.42;3.00;;;13.10;99.90;;;;;;4966446;28;20133;-57
2022/06/06 04:25:35;;;;;;;6.68;3.25;;;13.10;99.90;;;;;;4961271;28;20077;-57
2022/06/06 04:28:12;;;;;;;5.68;3.33;;;13.10;99.90;;;;;;4902324;29;20142;-56
2022/06/06 04:30:45;;;;;;;8.38;3.55;;;13.10;99.90;;;;;;4916711;29;20106;-54
2022/06/06 04:33:19;;;;;;;6.60;3.55;;;13.10;99.90;;;;;;4937304;28;20148;-56
2022/06/06 04:35:55;;;;;;;4.32;2.83;;;13.10;99.90;;;;;;4965346;28;20074;-61
2022/06/06 04:38:25;;;;;;;6.57;3.00;;;13.10;99.90;;;;;;4996617;28;20150;-57
2022/06/06 04:41:07;;;;;;;3.75;2.38;;;13.10;99.90;;;;;;4965860;28;20396;-56
2022/06/06 04:43:48;;;;;;;4.63;2.78;;;13.10;99.90;;;;;;4966775;28;20488;-57
2022/06/06 04:46:27;;;;;;;4.45;2.33;;;13.20;99.90;;;;;;4964734;28;20052;-57
2022/06/06 04:48:54;;;;;;;4.90;2.15;;;13.20;99.90;;;;;;4966737;28;20557;-57
2022/06/06 04:51:21;;;;;;;3.83;2.47;;;13.20;99.90;;;;;;4965985;28;20058;-56
2022/06/06 04:53:51;;;;;;;3.30;2.30;;;13.20;99.90;;;;;;4967083;28;20335;-57
2022/06/06 04:56:18;;;;;;;2.88;1.90;;;13.20;99.90;;;;;;4964580;28;20043;-55
2022/06/06 04:58:50;;;;;;;3.90;2.88;;;13.30;99.90;;;;;;4973677;28;20543;-57
2022/06/06 05:01:17;;;;;;;3.25;2.38;;;13.30;99.90;;;;;;4965288;28;20050;-52
2022/06/06 05:03:44;;;;;;;3.08;1.88;;;13.30;99.90;;;;;;4966710;28;20459;-55
2022/06/06 05:06:18;;;;;;;5.55;2.13;;;13.30;99.90;;;;;;4966777;28;20049;-53
2022/06/06 05:09:02;;;;;;;2.53;1.95;;;13.30;99.90;;;;;;4963458;28;20085;-52
2022/06/06 05:11:43;;;;;;;2.60;2.13;;;13.20;99.90;;;;;;4964129;28;20082;-57
2022/06/06 05:14:19;;;;;;;4.20;2.63;;;13.20;99.90;;;;;;4966590;28;20113;-55
2022/06/06 05:16:54;;;;;;;4.60;2.15;;;13.20;99.90;;;;;;4962539;28;20082;-55
2022/06/06 05:19:24;;;;;;;3.83;2.20;;;13.20;99.90;;;;;;4958961;28;20133;-55
2022/06/06 05:22:34;;;;;;;3.05;2.22;;;13.20;99.90;;;;;;4966767;28;20134;-58
2022/06/06 05:25:07;;;;;;;4.78;1.98;;;13.10;99.90;;;;;;4966027;28;20105;-58
2022/06/06 05:27:41;;;;;;;2.47;2.13;;;13.20;99.90;;;;;;4965662;28;20070;-57
2022/06/06 05:30:16;;;;;;;3.28;2.53;;;13.10;99.90;;;;;;4965108;28;20484;-62
2022/06/06 05:32:58;;;;;;;4.63;2.50;;;13.10;99.90;;;;;;4965429;28;20121;-57
2022/06/06 05:35:33;;;;;;;3.13;2.28;;;13.10;99.90;;;;;;4966356;28;20049;-57
2022/06/06 05:38:24;;;;;;;3.25;2.55;;;13.10;99.90;;;;;;4959140;28;20074;-56
2022/06/06 05:41:04;;;;;;;3.88;2.70;;;13.10;99.90;;;;;;4965442;28;20070;-57
2022/06/06 05:43:50;;;;;;;3.85;3.03;;;13.00;99.90;;;;;;4966160;28;20049;-58
2022/06/06 05:46:17;;;;;;;5.57;2.95;;;13.00;99.90;;;;;;4958871;28;20070;-55
2022/06/06 05:48:47;;;;;;;10.18;3.17;;;13.00;99.90;;;;;;4969946;28;20058;-54
2022/06/06 05:51:38;;;;;;;5.05;2.83;;;13.00;99.90;;;;;;4970226;28;20046;-58
2022/06/06 05:54:28;;;;;;;5.50;2.75;;;13.00;99.90;;;;;;4996625;28;20051;-59
2022/06/06 05:57:03;;;;;;;4.03;2.78;;;13.00;99.90;;;;;;4965062;28;20074;-60
2022/06/06 05:59:48;;;;;;;4.68;2.92;;;13.10;99.90;;;;;;4969496;28;20082;-57
2022/06/06 06:02:25;;;;;;;6.03;2.58;;;13.10;99.90;;;;;;4970002;28;20047;-57
2022/06/06 06:05:19;;;;;;;7.95;2.65;;;13.10;99.90;;;;;;4969227;28;20109;-56
2022/06/06 06:08:24;;;;;;;6.20;2.83;;;13.10;99.90;;;;;;4968858;28;20050;-55
2022/06/06 06:11:08;;;;;;;9.00;2.55;;;13.10;99.90;;;;;;4969154;28;20109;-55
2022/06/06 06:14:07;;;;;;;3.38;2.60;;;13.10;99.90;;;;;;4967464;28;20133;-57
2022/06/06 06:16:38;;;;;;;5.70;2.75;;;13.00;99.90;;;;;;4979610;28;20078;-58
2022/06/06 06:19:15;;;;;;;3.95;2.67;;;13.00;99.90;;;;;;4967327;28;20043;-56
2022/06/06 06:21:55;;;;;;;4.00;2.75;;;13.00;99.90;;;;;;4998214;28;20438;-57
2022/06/06 06:24:34;;;;;;;7.30;2.45;;;13.00;99.90;;;;;;4969596;28;20456;-56
2022/06/06 06:27:02;;;;;;;4.10;1.90;;;13.00;99.90;;;;;;4967552;28;20599;-56
2022/06/06 06:29:29;;;;;;;3.70;2.90;;;12.90;99.90;;;;;;4968262;28;20581;-57
2022/06/06 06:32:26;;;;;;;5.20;3.10;;;12.90;99.90;;;;;;4969044;28;20063;-55
2022/06/06 06:35:15;;;;;;;3.92;2.95;;;12.90;99.90;;;;;;4955567;28;20158;-53
2022/06/06 06:38:01;;;;;;;3.13;2.42;;;13.00;99.90;;;;;;4990790;28;20142;-54
2022/06/06 06:40:40;;;;;;;3.60;2.60;;;13.00;99.90;;;;;;4968292;28;20070;-55
2022/06/06 06:43:07;;;;;;;3.50;2.22;;;13.00;99.90;;;;;;4968638;28;20093;-53
2022/06/06 06:45:48;;;;;;;2.92;2.15;;;13.00;99.90;;;;;;4968324;28;20062;-61
2022/06/06 06:48:25;;;;;;;3.90;1.90;;;13.00;99.90;;;;;;4966092;28;20130;-56
2022/06/06 06:51:01;;;;;;;3.00;1.67;;;13.00;99.90;;;;;;4963044;28;20047;-58
2022/06/06 06:53:52;;;;;;;3.38;1.38;;;12.90;99.90;;;;;;4968166;28;20046;-56
2022/06/06 06:56:39;;;;;;;1.40;1.17;;;12.80;99.90;;;;;;4620089;28;10001395;-57
2022/06/06 06:59:25;;;;;;;1.23;0.95;;;12.70;99.90;;;;;;4984738;28;20138;-55
2022/06/06 07:11:20;;;;;;;0.43;0.40;;;12.50;99.90;;;;;;4964308;28;20082;-57
2022/06/06 07:14:22;;;;;;;0.32;0.32;;;12.60;99.90;;;;;;4961320;28;20254;-55
2022/06/06 07:16:51;;;;;;;0.75;0.40;;;12.50;99.90;;;;;;4964011;28;20100;-58
2022/06/06 07:19:20;;;;;;;1.20;1.10;;;12.60;99.90;;;;;;4963947;28;20462;-54
2022/06/06 07:21:47;;;;;;;0.88;0.57;;;12.60;99.90;;;;;;4964176;28;20133;-55
2022/06/06 07:24:19;;;;;;;4.30;0.90;;;12.60;99.90;;;;;;4965575;28;20082;-57
2022/06/06 07:26:46;;;;;;;2.60;0.60;;;12.70;99.90;;;;;;4965216;28;20213;-55
2022/06/06 07:29:17;;;;;;;1.27;0.60;;;12.60;99.90;;;;;;4965132;28;20615;-57
2022/06/06 07:32:18;;;;;;;1.27;1.02;;;12.60;99.90;;;;;;4966127;28;20461;-58
2022/06/06 07:35:17;;;;;;;3.58;0.80;;;12.70;99.90;;;;;;4966822;28;20086;-58
2022/06/06 07:37:55;;;;;;;1.80;1.15;;;12.50;99.90;;;;;;4965208;28;20474;-57
2022/06/06 07:40:46;;;;;;;2.40;1.13;;;12.60;99.90;;;;;;4968040;28;20075;-58
2022/06/06 07:43:48;;;;;;;1.25;0.98;;;12.50;99.90;;;;;;4966179;28;20078;-58
2022/06/06 07:46:38;;;;;;;1.58;1.13;;;12.50;99.90;;;;;;4967361;28;20038;-58
2022/06/06 07:49:09;;;;;;;3.95;1.35;;;12.60;99.90;;;;;;4965958;28;20047;-58
2022/06/06 07:51:50;;;;;;;1.58;0.90;;;12.60;99.90;;;;;;4966265;28;20186;-58
2022/06/06 07:54:40;;;;;;;2.72;0.60;;;12.60;99.90;;;;;;4965669;28;20047;-59
2022/06/06 07:57:26;;;;;;;2.00;0.93;;;12.70;99.90;;;;;;4988076;28;20145;-58
2022/06/06 08:00:28;;;;;;;1.60;0.95;;;12.60;99.90;;;;;;4960028;28;20046;-57
2022/06/06 08:03:07;;;;;;;1.10;0.80;;;12.70;99.90;;;;;;4940041;28;20085;-56
2022/06/06 08:06:01;;;;;;;1.08;0.80;;;12.70;99.90;;;;;;4996824;28;20065;-55
2022/06/06 08:09:00;;;;;;;4.03;0.90;;;12.70;99.90;;;;;;4961251;28;20130;-55
2022/06/06 08:12:05;;;;;;;2.13;1.20;;;12.70;99.90;;;;;;4963827;28;20102;-57
2022/06/06 08:15:03;;;;;;;3.28;0.98;;;12.80;99.90;;;;;;4936930;28;20047;-58
2022/06/06 08:18:04;;;;;;;1.67;0.85;;;13.00;99.90;;;;;;4968750;28;20057;-57
2022/06/06 08:20:34;;;;;;;5.32;0.98;;;13.00;99.90;;;;;;4964778;28;20561;-57
2022/06/06 08:23:01;;;;;;;1.27;0.70;;;13.20;99.90;;;;;;4966801;28;20135;-56
2022/06/06 08:25:27;;;;;;;0.85;0.50;;;13.10;99.90;;;;;;4968897;28;20609;-56
2022/06/06 08:27:56;;;;;;;0.90;0.77;;;13.10;99.90;;;;;;4964993;28;20059;-58
2022/06/06 08:30:23;;;;;;;1.20;0.60;;;13.10;99.90;;;;;;4966182;28;20469;-58
2022/06/06 08:32:50;;;;;;;1.08;0.60;;;13.20;99.90;;;;;;4966961;28;20050;-58
2022/06/06 08:35:17;;;;;;;1.33;0.65;;;13.20;99.90;;;;;;4965719;28;20051;-58
2022/06/06 08:37:54;;;;;;;1.20;0.60;;;13.20;99.90;;;;;;4967084;28;20145;-56
2022/06/06 08:41:03;;;;;;;0.52;0.52;;;13.20;99.90;;;;;;4966127;28;20047;-57
2022/06/06 08:43:39;;;;;;;0.90;0.68;;;13.20;99.90;;;;;;4962844;28;20054;-57
2022/06/06 08:46:28;;;;;;;0.77;0.50;;;13.40;99.90;;;;;;4961614;28;20054;-56
2022/06/06 08:52:11;;;;;;;1.48;0.80;;;13.70;99.90;;;;;;4963145;28;20101;-57
2022/06/06 08:55:16;;;;;;;2.95;0.90;;;13.80;99.90;;;;;;4958449;28;20086;-59
2022/06/06 08:58:02;;;;;;;3.03;0.77;;;13.80;99.90;;;;;;4952492;28;20188;-58
2022/06/06 09:00:40;;;;;;;2.10;0.68;;;13.70;99.90;;;;;;4965167;28;20057;-57
2022/06/06 09:03:35;;;;;;;0.77;0.70;;;13.80;99.90;;;;;;4962816;28;20520;-58
2022/06/06 09:06:17;;;;;;;1.50;0.70;;;13.80;99.90;;;;;;4963816;28;20086;-56
2022/06/06 09:09:21;;;;;;;1.23;0.77;;;13.70;99.90;;;;;;4963336;28;20141;-57
2022/06/06 09:12:16;;;;;;;3.53;0.80;;;13.60;99.90;;;;;;4964446;28;20148;-58
2022/06/06 09:14:59;;;;;;;;;;;13.50;99.90;;;;;;4966026;28;20153;-57
2022/06/06 09:17:56;;;;;;;0.88;0.82;;;13.40;99.90;;;;;;4998109;28;20012;-58
2022/06/06 09:20:28;;;;;;;5.97;1.10;;;13.50;99.90;;;;;;4965926;28;20596;-57
2022/06/06 09:23:16;;;;;;;1.02;0.93;;;13.50;99.90;;;;;;4970047;28;20138;-56
2022/06/06 09:26:00;;;;;;;1.02;0.90;;;13.60;99.90;;;;;;4970617;28;20227;-57
2022/06/06 09:28:32;;;;;;;1.50;1.17;;;13.70;99.90;;;;;;5000775;28;20081;-58
2022/06/06 09:31:21;;;;;;;1.73;1.00;;;13.70;99.90;;;;;;4625409;28;9999959;-59
2022/06/06 09:34:10;;;;;;;2.10;1.20;;;13.60;99.90;;;;;;4968824;28;20081;-58
2022/06/06 09:36:40;;;;;;;3.00;1.65;;;13.70;99.90;;;;;;4980381;28;20570;-59
2022/06/06 09:39:27;;;;;;;1.27;1.15;;;13.70;99.90;;;;;;4970293;28;20142;-58
2022/06/06 09:41:56;;;;;;;0.95;0.88;;;13.80;99.90;;;;;;4968959;28;20106;-58
2022/06/06 09:44:44;;;;;;;1.02;0.80;;;13.70;99.90;;;;;;4970083;28;20074;-59
2022/06/06 09:47:32;;;;;;;0.68;0.68;;;13.70;99.90;;;;;;4997413;28;20525;-58
2022/06/06 09:50:05;;;;;;;0.77;0.77;;;13.60;99.90;;;;;;4970194;28;20470;-56
2022/06/06 09:52:42;;;;;;;2.10;1.20;;;13.60;99.90;;;;;;4970478;28;20046;-58
2022/06/06 10:01:37;;;;;;;5.35;1.13;;;13.70;99.90;;;;;;4969644;28;20142;-55
2022/06/06 10:04:16;;;;;;;1.58;1.00;;;13.70;99.90;;;;;;4996262;28;20057;-58
2022/06/06 10:06:58;;;;;;;1.90;0.80;;;13.70;99.90;;;;;;4968436;28;20047;-58
2022/06/06 10:09:50;;;;;;;1.65;0.88;;;13.70;99.90;;;;;;4969081;28;20053;-56
2022/06/06 10:12:27;;;;;;;2.78;0.60;;;13.80;99.90;;;;;;5000335;28;20082;-56
2022/06/06 10:15:21;;;;;;;1.10;0.70;;;13.70;99.90;;;;;;4996631;28;20223;-58
2022/06/06 10:18:00;;;;;;;0.70;0.70;;;13.70;99.90;;;;;;4969472;28;20146;-57
2022/06/06 10:20:39;;;;;;;1.95;1.00;;;13.80;99.90;;;;;;4969946;28;20047;-59
2022/06/06 10:23:12;;;;;;;2.30;1.50;;;13.80;99.90;;;;;;4965687;28;20502;-59
2022/06/06 10:26:18;;;;;;;1.10;0.77;;;13.90;99.90;;;;;;4970036;28;20153;-58
2022/06/06 10:29:23;;;;;;;3.20;0.82;;;13.90;99.90;;;;;;4968486;28;20125;-57
2022/06/06 10:31:57;;;;;;;0.55;0.52;;;14.10;99.90;;;;;;4983442;28;20066;-59
2022/06/06 10:34:51;;;;;;;1.80;0.90;;;14.10;99.90;;;;;;4969808;28;20087;-59
2022/06/06 10:37:18;;;;;;;;;;;14.10;99.90;;;;;;4998166;28;20070;-59
2022/06/06 10:40:09;;;;;;;1.20;0.50;;;14.10;99.90;;;;;;4969947;28;20021;-59
2022/06/06 10:43:01;;;;;;;3.85;1.33;;;14.10;99.90;;;;;;4970392;28;20085;-58
2022/06/06 10:45:44;;;;;;;1.98;0.88;;;14.10;99.90;;;;;;4961876;28;20068;-58
2022/06/06 10:48:37;;;;;;;2.10;0.95;;;14.10;99.90;;;;;;4967888;28;20153;-58
2022/06/06 10:51:38;;;;;;;5.63;1.20;;;14.10;99.90;;;;;;4967765;28;20174;-56
2022/06/06 10:54:14;;;;;;;1.40;1.00;;;14.10;99.90;;;;;;4969009;28;20078;-58
2022/06/06 10:57:20;;;;;;;1.00;0.85;;;14.10;99.90;;;;;;4969466;28;20058;-57
2022/06/06 11:00:06;;;;;;;1.60;0.80;;;14.20;99.90;;;;;;4967841;28;20423;-58
2022/06/06 11:02:57;;;;;;;1.60;1.00;;;14.20;99.90;;;;;;4969080;28;20134;-57
2022/06/06 11:06:02;;;;;;;2.53;1.00;;;14.10;99.90;;;;;;4968033;28;20454;-58
2022/06/06 11:08:42;;;;;;;5.32;2.45;;;14.20;99.90;;;;;;4968643;28;20105;-56
2022/06/06 11:11:30;;;;;;;2.28;0.85;;;14.30;99.90;;;;;;4967613;28;20043;-57
2022/06/06 11:14:36;;;;;;;2.20;1.58;;;14.40;99.90;;;;;;4968844;28;20679;-58
2022/06/06 11:17:34;;;;;;;2.40;1.33;;;14.40;99.90;;;;;;4983864;28;20105;-58
2022/06/06 11:20:19;;;;;;;1.65;0.70;;;14.50;99.90;;;;;;4965134;28;20576;-59
2022/06/06 11:23:17;;;;;;;7.03;1.20;;;14.60;99.90;;;;;;4963168;28;20082;-57
2022/06/06 11:26:13;;;;;;;1.42;0.80;;;14.50;99.90;;;;;;4959534;28;20081;-58
2022/06/06 11:29:13;;;;;;;0.88;0.80;;;14.50;99.90;;;;;;4971371;28;20090;-58
2022/06/06 11:31:54;;;;;;;3.75;1.80;;;14.60;99.90;;;;;;4967287;28;20085;-58
2022/06/06 11:34:45;;;;;;;3.80;0.85;;;14.60;99.90;;;;;;4967498;28;20481;-58
2022/06/06 11:37:42;;;;;;;3.35;0.85;;;14.60;99.90;;;;;;4962676;28;20078;-57
2022/06/06 11:40:35;;;;;;;1.38;0.88;;;14.50;99.90;;;;;;4998437;28;20560;-58
2022/06/06 11:43:45;;;;;;;2.08;0.75;;;14.50;99.90;;;;;;4968439;28;20074;-58
2022/06/06 11:46:37;;;;;;;3.80;1.10;;;14.50;99.90;;;;;;4967328;28;20043;-55
2022/06/06 11:49:04;;;;;;;2.40;1.33;;;14.60;99.90;;;;;;4964871;28;20125;-57
2022/06/06 11:51:49;;;;;;;4.15;1.23;;;14.70;99.90;;;;;;4968450;28;20043;-58
2022/06/06 11:54:38;;;;;;;1.98;1.00;;;14.70;99.90;;;;;;4966131;28;20074;-57
2022/06/06 11:57:22;;;;;;;1.73;0.80;;;14.80;99.90;;;;;;4966443;28;20125;-56
2022/06/06 12:00:07;;;;;;;2.00;1.40;;;14.80;99.90;;;;;;4967703;28;20086;-57
2022/06/06 12:03:02;;;;;;;4.07;1.23;;;14.90;99.90;;;;;;4968263;28;20154;-58
2022/06/06 12:05:56;;;;;;;2.17;0.98;;;14.90;99.90;;;;;;4967875;28;20085;-57
2022/06/06 12:08:45;;;;;;;1.38;0.90;;;14.90;99.90;;;;;;4963232;28;20055;-57
2022/06/06 12:11:15;;;;;;;0.93;0.82;;;14.80;99.90;;;;;;4976130;28;20051;-58
2022/06/06 12:13:47;;;;;;;1.90;1.23;;;14.90;99.90;;;;;;4967737;28;20090;-58
2022/06/06 12:16:18;;;;;;;1.50;0.98;;;14.90;99.90;;;;;;4991103;28;20134;-57
2022/06/06 12:18:54;;;;;;;1.08;0.77;;;14.90;99.90;;;;;;4996081;28;20050;-57
2022/06/06 12:21:27;;;;;;;3.33;1.40;;;14.80;99.90;;;;;;4968138;28;20078;-56
2022/06/06 12:24:10;;;;;;;3.28;1.40;;;14.80;99.90;;;;;;4966831;28;20085;-55
2022/06/06 12:27:14;;;;;;;7.40;1.70;;;14.80;99.90;;;;;;4995170;28;20569;-58
2022/06/06 12:29:46;;;;;;;3.17;1.48;;;14.80;99.90;;;;;;4963911;28;20129;-57
2022/06/06 12:32:41;;;;;;;3.47;1.73;;;14.80;99.90;;;;;;4962918;28;20138;-58
2022/06/06 12:35:25;;;;;;;5.35;2.20;;;15.00;99.90;;;;;;4967302;28;20054;-58
2022/06/06 12:38:07;;;;;;;1.80;1.25;;;15.00;99.90;;;;;;4965926;28;20110;-58
2022/06/06 12:40:57;;;;;;;2.33;1.52;;;14.90;99.90;;;;;;4964204;28;20109;-58
2022/06/06 12:43:37;;;;;;;2.47;1.70;;;14.80;99.90;;;;;;4967699;28;20077;-57
2022/06/06 12:46:22;;;;;;;2.92;1.60;;;14.80;99.90;;;;;;4964448;28;20419;-57
2022/06/06 12:49:17;;;;;;;5.30;1.48;;;14.90;99.90;;;;;;4966149;28;20050;-55
2022/06/06 12:52:14;;;;;;;3.65;1.95;;;15.10;99.90;;;;;;4966717;28;20168;-55
2022/06/06 12:58:00;;;;;;;10.77;1.85;;;15.20;99.90;;;;;;4967956;28;20055;-55
2022/06/06 13:03:25;;;;;;;3.80;1.88;;;15.30;99.90;;;;;;4967662;28;20098;-57
2022/06/06 13:05:59;;;;;;;3.92;1.98;;;15.30;99.90;;;;;;5000266;28;20055;-57
2022/06/06 13:08:53;;;;;;;5.03;2.00;;;15.40;99.90;;;;;;4966659;28;20043;-56
2022/06/06 13:11:41;;;;;;;2.13;1.80;;;15.60;99.90;;;;;;4970136;28;20088;-57
2022/06/06 13:14:40;;;;;;;7.05;1.80;;;15.90;99.90;;;;;;4969448;28;20091;-56
2022/06/06 13:17:29;;;;;;;2.60;2.00;;;16.10;99.90;;;;;;4937892;28;20600;-58
2022/06/06 13:20:10;;;;;;;4.38;1.88;;;16.40;99.90;;;;;;4968813;28;20086;-57
2022/06/06 13:22:37;;;;;;;6.47;2.17;;;16.50;99.90;;;;;;4971106;28;20150;-58
2022/06/06 13:25:10;;;;;;;2.88;2.17;;;16.60;99.90;;;;;;4967380;28;20146;-57
2022/06/06 13:27:40;;;;;;;5.05;2.55;;;16.50;99.90;;;;;;4957614;28;20051;-58
2022/06/06 13:30:24;;;;;;;4.57;3.55;;;16.50;99.90;;;;;;4970889;28;20070;-59
2022/06/06 13:33:40;;;;;;;3.33;2.03;;;16.70;99.90;;;;;;4970342;28;20149;-58
2022/06/06 13:36:23;;;;;;;5.60;2.05;;;16.90;99.90;;;;;;4975667;28;20054;-57
2022/06/06 13:39:11;;;;;;;2.50;2.00;;;17.00;99.90;;;;;;4969832;28;20101;-56
2022/06/06 13:41:54;;;;;;;2.92;2.40;;;17.10;99.90;;;;;;4970216;28;20078;-57
2022/06/06 13:44:48;;;;;;;9.57;2.53;;;17.00;99.90;;;;;;4969436;28;20475;-57
2022/06/06 13:47:32;;;;;;;3.33;1.92;;;17.00;99.90;;;;;;5001086;28;20097;-57
2022/06/06 13:50:37;;;;;;;8.95;2.60;;;17.00;99.90;;;;;;4989927;28;20054;-58
2022/06/06 13:53:21;;;;;;;4.15;2.40;;;16.90;99.90;;;;;;4968277;28;20556;-57
2022/06/06 13:55:48;;;;;;;;;;;16.80;99.90;;;;;;4969540;28;20093;-58
2022/06/06 13:58:34;;;;;;;4.53;2.88;;;16.70;99.90;;;;;;4993205;28;19962;-58
2022/06/06 14:01:16;;;;;;;2.90;2.60;;;16.80;99.90;;;;;;4967336;28;20047;-58
2022/06/06 14:03:52;;;;;;;4.75;2.72;;;16.50;99.90;;;;;;4983045;28;20122;-57
2022/06/06 14:06:34;;;;;;;4.28;2.67;;;16.30;99.90;;;;;;4968490;28;20101;-56
2022/06/06 14:09:01;;;;;;;4.05;2.78;;;16.40;99.90;;;;;;4968007;28;20062;-56
2022/06/06 14:11:47;;;;;;;10.13;2.33;;;16.40;99.90;;;;;;4969643;28;20070;-57
2022/06/06 14:14:16;;;;;;;5.07;2.60;;;16.60;99.90;;;;;;4968434;28;20537;-58
2022/06/06 14:17:04;;;;;;;3.10;2.55;;;16.50;99.90;;;;;;4964359;28;20082;-59
2022/06/06 14:19:48;;;;;;;5.60;3.28;;;16.50;99.90;;;;;;4968147;28;20042;-58
2022/06/06 14:22:45;;;;;;;7.60;2.60;;;16.50;99.90;;;;;;4969870;28;20043;-59
2022/06/06 14:25:12;;;;;;;6.00;2.35;;;16.70;99.90;;;;;;4951225;28;20101;-58